Terminal Aerodrome Forecast
Issued by NWS Twin Cities, MN

Home | Current Version | Previous Version | Text Only | Print | Product List | Glossary Off
Versions: 1 2 3 4 5 6 7 8 9 10 11 12 13 14 15 16 17 18 19 20

000
FTUS43 KMPX 261737
TAFEAU
TAF
KEAU 261737Z 2618/2718 10005KT P6SM -RA OVC070
     FM262000 01007KT 4SM RA BR OVC025
     FM262200 34007KT 4SM RA BR OVC007
     FM270500 30007KT P6SM -RA OVC012
     FM271000 26007KT P6SM BKN120
     FM271500 27010KT P6SM SKC=

USA.gov is the U.S. government's official web portal to all federal, state and local government web resources and services.